createdAt,value
2022-12-09T00:02:13.809Z,5.37
2022-12-09T00:04:40.709Z,5.47
2022-12-09T00:07:07.338Z,5.37
2022-12-09T00:09:33.904Z,5.32
2022-12-09T00:12:03.156Z,5.20
2022-12-09T00:14:32.264Z,5.40
2022-12-09T00:16:58.869Z,5.39
2022-12-09T00:19:25.653Z,5.44
2022-12-09T00:21:52.416Z,5.33
2022-12-09T00:24:19.027Z,5.19
2022-12-09T00:26:45.821Z,4.93
2022-12-09T00:29:13.140Z,4.95
2022-12-09T00:31:40.019Z,5.15
2022-12-09T00:34:11.048Z,5.04
2022-12-09T00:36:37.722Z,5.04
2022-12-09T00:39:04.484Z,5.20
2022-12-09T00:41:31.458Z,5.13
2022-12-09T00:43:58.536Z,5.19
2022-12-09T00:46:25.316Z,5.21
2022-12-09T00:48:51.954Z,5.26
2022-12-09T00:51:23.319Z,5.18
2022-12-09T00:53:50.533Z,5.05
2022-12-09T00:56:17.085Z,4.99
2022-12-09T00:58:46.406Z,4.88
2022-12-09T01:01:12.973Z,4.77
2022-12-09T01:03:42.662Z,4.67
2022-12-09T01:06:11.354Z,4.78
2022-12-09T01:08:39.404Z,4.82
2022-12-09T01:11:16.014Z,4.70
2022-12-09T01:13:42.784Z,4.79
2022-12-09T01:16:24.215Z,4.89
2022-12-09T01:18:52.280Z,4.88
2022-12-09T01:21:19.271Z,4.92
2022-12-09T01:23:45.898Z,4.87
2022-12-09T01:26:15.543Z,4.86
2022-12-09T01:28:42.160Z,4.91
2022-12-09T01:31:18.159Z,4.90
2022-12-09T01:33:44.861Z,4.97
2022-12-09T01:36:15.249Z,4.99
2022-12-09T01:38:41.869Z,5.16
2022-12-09T01:41:08.785Z,5.11
2022-12-09T01:43:35.797Z,5.18
2022-12-09T01:46:02.828Z,5.26
2022-12-09T01:48:44.961Z,5.05
2022-12-09T01:51:18.394Z,5.19
2022-12-09T01:53:46.601Z,5.03
2022-12-09T01:56:19.231Z,5.07
2022-12-09T01:58:46.407Z,5.20
2022-12-09T02:01:13.309Z,5.30
2022-12-09T02:03:40.040Z,5.08
2022-12-09T02:06:06.830Z,5.13
2022-12-09T02:08:34.003Z,5.18
2022-12-09T02:11:14.320Z,5.21
2022-12-09T02:13:55.359Z,5.17
2022-12-09T02:16:24.081Z,5.15
2022-12-09T02:19:01.153Z,5.25
2022-12-09T02:21:38.893Z,5.27
2022-12-09T02:24:22.380Z,5.42
2022-12-09T02:26:56.317Z,5.43
2022-12-09T02:29:26.095Z,5.40
2022-12-09T02:32:09.900Z,5.44
2022-12-09T02:34:41.638Z,5.39
2022-12-09T02:37:17.806Z,5.39
2022-12-09T02:40:01.601Z,5.40
2022-12-09T02:42:32.952Z,5.56
2022-12-09T02:45:01.920Z,5.53
2022-12-09T02:47:29.906Z,5.55
2022-12-09T02:50:00.891Z,5.60
2022-12-09T02:52:28.783Z,5.57
2022-12-09T02:54:55.636Z,5.63
2022-12-09T02:57:26.976Z,5.63
2022-12-09T02:59:53.898Z,5.55
2022-12-09T03:02:24.360Z,5.61
2022-12-09T03:05:48.476Z,5.47
2022-12-09T03:08:33.438Z,5.44
2022-12-09T03:11:03.791Z,5.45
2022-12-09T03:13:43.291Z,5.49
2022-12-09T03:16:30.572Z,5.48
2022-12-09T03:19:02.397Z,5.41
2022-12-09T03:21:32.291Z,5.46
2022-12-09T03:23:59.552Z,5.49
2022-12-09T03:26:28.787Z,5.45
2022-12-09T03:28:55.903Z,5.47
2022-12-09T03:31:24.928Z,5.47
2022-12-09T03:33:54.204Z,5.42
2022-12-09T03:36:23.093Z,5.22
2022-12-09T03:38:51.421Z,5.24
2022-12-09T03:41:24.243Z,5.27
2022-12-09T03:43:54.331Z,5.13
2022-12-09T03:46:22.171Z,5.19
2022-12-09T03:48:49.314Z,5.23
2022-12-09T03:51:26.057Z,5.31
2022-12-09T03:54:03.499Z,5.38
2022-12-09T03:56:33.926Z,5.41
2022-12-09T03:59:01.132Z,5.35
2022-12-09T04:01:28.905Z,5.29
2022-12-09T04:03:56.692Z,5.39
2022-12-09T04:06:24.811Z,5.37
2022-12-09T04:08:51.441Z,5.43
2022-12-09T04:11:18.419Z,5.46
2022-12-09T04:14:07.087Z,5.35
2022-12-09T04:16:51.863Z,5.29
2022-12-09T04:19:32.186Z,5.38
2022-12-09T04:22:18.969Z,5.38
2022-12-09T04:24:45.541Z,5.34
2022-12-09T04:27:12.525Z,5.32
2022-12-09T04:29:39.200Z,5.33
2022-12-09T04:32:06.109Z,5.33
2022-12-09T04:34:35.489Z,5.15
2022-12-09T04:37:02.379Z,5.07
2022-12-09T04:39:29.205Z,5.11
2022-12-09T04:41:55.827Z,5.16
2022-12-09T04:44:22.688Z,4.88
2022-12-09T04:46:49.441Z,4.88
2022-12-09T04:49:16.200Z,4.90
2022-12-09T04:51:43.090Z,4.82
2022-12-09T04:54:13.885Z,4.65
2022-12-09T04:56:41.624Z,4.90
2022-12-09T04:59:08.589Z,5.05
2022-12-09T05:01:35.481Z,5.15
2022-12-09T05:04:02.311Z,5.21
2022-12-09T05:06:29.637Z,5.30
2022-12-09T05:08:58.009Z,5.28
2022-12-09T05:11:25.217Z,5.30
2022-12-09T05:13:53.359Z,5.30
2022-12-09T05:16:20.709Z,5.38
2022-12-09T05:18:48.964Z,5.39
2022-12-09T05:21:18.032Z,5.37
2022-12-09T05:23:45.123Z,5.43
2022-12-09T05:26:15.231Z,5.41
2022-12-09T05:28:42.362Z,5.40
2022-12-09T05:31:16.336Z,5.43
2022-12-09T05:33:44.142Z,5.40
2022-12-09T05:36:12.422Z,5.50
2022-12-09T05:38:39.818Z,5.41
2022-12-09T05:41:07.222Z,5.42
2022-12-09T05:43:34.680Z,5.32
2022-12-09T05:46:01.901Z,5.31
2022-12-09T05:48:29.026Z,5.33
2022-12-09T05:51:07.289Z,5.43
2022-12-09T05:53:34.622Z,5.42
2022-12-09T05:56:02.168Z,5.49
2022-12-09T05:58:29.612Z,5.51
2022-12-09T06:00:56.516Z,5.53
2022-12-09T06:03:24.137Z,5.53
2022-12-09T06:05:51.536Z,5.54
2022-12-09T06:08:19.001Z,5.55
2022-12-09T06:10:46.235Z,5.52
2022-12-09T06:13:14.827Z,5.40
2022-12-09T06:15:41.821Z,5.46
2022-12-09T06:18:08.874Z,5.50
2022-12-09T06:20:40.002Z,5.56
2022-12-09T06:23:06.720Z,5.58
2022-12-09T06:25:33.816Z,5.52
2022-12-09T06:28:00.395Z,5.49
2022-12-09T06:30:26.992Z,5.49
2022-12-09T06:32:53.777Z,5.49
2022-12-09T06:35:21.162Z,5.41
2022-12-09T06:37:51.692Z,5.45
2022-12-09T06:40:18.208Z,5.47
2022-12-09T06:42:45.128Z,5.06
2022-12-09T06:45:12.642Z,4.95
2022-12-09T06:47:39.986Z,5.03
2022-12-09T06:50:08.128Z,4.97
2022-12-09T06:52:35.810Z,4.98
2022-12-09T06:55:03.698Z,5.10
2022-12-09T06:57:30.682Z,4.99
2022-12-09T06:59:57.477Z,5.04
2022-12-09T07:02:24.745Z,5.15
2022-12-09T07:04:55.434Z,5.23
2022-12-09T07:07:24.770Z,5.36
2022-12-09T07:09:52.071Z,5.42
2022-12-09T07:12:19.062Z,5.51
2022-12-09T07:14:46.303Z,5.56
2022-12-09T07:17:17.686Z,5.57
2022-12-09T07:19:45.064Z,5.68
2022-12-09T07:22:14.741Z,5.48
2022-12-09T07:24:42.084Z,5.49
2022-12-09T07:27:15.820Z,5.58
2022-12-09T07:29:45.790Z,5.42
2022-12-09T07:32:12.548Z,5.43
2022-12-09T07:34:39.695Z,5.58
2022-12-09T07:37:07.098Z,5.29
2022-12-09T07:39:36.140Z,5.44
2022-12-09T07:42:03.061Z,5.49
2022-12-09T07:44:30.429Z,5.52
2022-12-09T07:46:57.510Z,5.56
2022-12-09T07:49:24.912Z,5.56
2022-12-09T07:51:54.211Z,5.64
2022-12-09T07:54:23.226Z,5.58
2022-12-09T07:56:52.429Z,5.44
2022-12-09T07:59:19.124Z,5.61
2022-12-09T08:01:46.039Z,5.67
2022-12-09T08:04:13.425Z,5.59
2022-12-09T08:06:40.373Z,5.66
2022-12-09T08:09:10.684Z,5.69
2022-12-09T08:11:37.744Z,5.68
2022-12-09T08:14:12.582Z,5.77
2022-12-09T08:16:42.011Z,5.78
2022-12-09T08:19:10.301Z,5.74
2022-12-09T08:21:38.329Z,5.51
2022-12-09T08:24:05.938Z,5.56
2022-12-09T08:26:34.004Z,5.70
2022-12-09T08:29:01.882Z,5.79
2022-12-09T08:31:28.925Z,5.83
2022-12-09T08:33:56.816Z,5.92
2022-12-09T08:36:28.538Z,5.95
2022-12-09T08:38:56.151Z,6.00
2022-12-09T08:41:28.163Z,6.00
2022-12-09T08:43:58.444Z,5.98
2022-12-09T08:46:25.108Z,5.96
2022-12-09T08:48:52.924Z,5.89
2022-12-09T08:51:19.743Z,5.99
2022-12-09T08:53:46.891Z,5.99
2022-12-09T08:56:15.552Z,5.99
2022-12-09T08:58:43.413Z,6.06
2022-12-09T09:01:24.302Z,6.12
2022-12-09T09:03:52.141Z,6.12
2022-12-09T09:06:22.255Z,6.29
2022-12-09T09:08:49.593Z,6.42
2022-12-09T09:11:18.916Z,6.47
2022-12-09T09:13:47.889Z,6.46
2022-12-09T09:16:17.063Z,6.52
2022-12-09T09:18:44.757Z,6.59
2022-12-09T09:21:13.157Z,6.61
2022-12-09T09:23:43.833Z,6.56
2022-12-09T09:26:16.526Z,6.64
2022-12-09T09:28:43.279Z,6.60
2022-12-09T09:31:12.551Z,6.47
2022-12-09T09:33:39.715Z,6.49
2022-12-09T09:36:10.422Z,6.36
2022-12-09T09:38:37.755Z,6.49
2022-12-09T09:41:27.228Z,6.39
2022-12-09T09:43:56.674Z,6.42
2022-12-09T09:46:33.332Z,6.45
2022-12-09T09:49:00.783Z,6.51
2022-12-09T09:51:28.610Z,6.48
2022-12-09T09:53:55.542Z,6.57
2022-12-09T09:56:45.980Z,6.36
2022-12-09T09:59:40.313Z,6.53
2022-12-09T10:02:18.077Z,6.81
2022-12-09T10:04:54.630Z,6.97
2022-12-09T10:07:24.003Z,6.96
2022-12-09T10:10:22.091Z,6.75
2022-12-09T10:13:17.992Z,6.75
2022-12-09T10:16:00.523Z,6.92
2022-12-09T10:18:55.291Z,6.83
2022-12-09T10:21:23.142Z,6.95
2022-12-09T10:23:50.700Z,6.92
2022-12-09T10:26:26.473Z,6.62
2022-12-09T10:29:14.848Z,6.60
2022-12-09T10:31:42.050Z,6.73
2022-12-09T10:34:10.995Z,6.79
2022-12-09T10:36:39.413Z,6.65
2022-12-09T10:39:06.248Z,6.60
2022-12-09T10:41:46.207Z,6.95
2022-12-09T10:44:24.587Z,6.88
2022-12-09T10:47:40.242Z,6.80
2022-12-09T10:50:08.465Z,6.92
2022-12-09T10:52:43.794Z,7.08
2022-12-09T10:55:44.228Z,7.23
2022-12-09T10:58:21.807Z,7.26
2022-12-09T11:01:05.280Z,7.35
2022-12-09T11:03:39.743Z,7.50
2022-12-09T11:06:24.673Z,7.71
2022-12-09T11:09:04.112Z,7.77
2022-12-09T11:11:46.320Z,7.83
2022-12-09T11:14:24.721Z,7.86
2022-12-09T11:17:08.824Z,7.83
2022-12-09T11:19:37.053Z,7.71
2022-12-09T11:22:31.723Z,7.69
2022-12-09T11:25:11.855Z,7.67
2022-12-09T11:27:57.046Z,7.67
2022-12-09T11:30:35.722Z,7.69
2022-12-09T11:33:25.282Z,7.72
2022-12-09T11:35:58.298Z,7.64
2022-12-09T11:38:35.593Z,7.81
2022-12-09T11:41:11.174Z,7.90
2022-12-09T11:43:58.849Z,7.90
2022-12-09T11:46:28.138Z,7.85
2022-12-09T11:49:04.033Z,7.89
2022-12-09T11:51:37.584Z,7.60
2022-12-09T11:54:15.236Z,7.60
2022-12-09T11:56:42.404Z,7.56
2022-12-09T11:59:16.650Z,7.66
2022-12-09T12:02:11.182Z,7.67
2022-12-09T12:04:57.788Z,7.30
2022-12-09T12:07:38.739Z,7.07
2022-12-09T12:10:10.101Z,7.20
2022-12-09T12:13:10.664Z,7.35
2022-12-09T12:15:46.457Z,7.52
2022-12-09T12:18:18.714Z,7.63
2022-12-09T12:20:47.942Z,7.68
2022-12-09T12:23:39.954Z,7.69
2022-12-09T12:26:15.778Z,7.76
2022-12-09T12:29:10.590Z,7.82
2022-12-09T12:31:49.369Z,7.87
2022-12-09T12:34:25.704Z,7.85
2022-12-09T12:37:14.926Z,7.72
2022-12-09T12:40:05.934Z,7.67
2022-12-09T12:43:00.704Z,7.61
2022-12-09T12:45:29.917Z,7.59
2022-12-09T12:48:02.101Z,7.61
2022-12-09T12:50:47.498Z,7.62
2022-12-09T12:53:33.071Z,7.48
2022-12-09T12:56:07.922Z,7.39
2022-12-09T12:58:48.715Z,7.32
2022-12-09T13:01:24.399Z,7.19
2022-12-09T13:04:07.834Z,7.16
2022-12-09T13:06:44.136Z,7.17
2022-12-09T13:09:47.543Z,7.21
2022-12-09T13:12:21.831Z,7.19
2022-12-09T13:14:53.475Z,7.26
2022-12-09T13:17:26.402Z,7.35
2022-12-09T13:19:55.719Z,7.33
2022-12-09T13:23:06.973Z,7.45
2022-12-09T13:25:49.065Z,7.30
2022-12-09T13:28:39.887Z,7.35
2022-12-09T13:31:08.652Z,7.32
2022-12-09T13:34:04.339Z,7.36
2022-12-09T13:36:36.529Z,7.24
2022-12-09T13:39:04.216Z,7.15
2022-12-09T13:41:30.617Z,7.11
2022-12-09T13:44:10.083Z,7.19
2022-12-09T13:46:37.578Z,7.04
2022-12-09T13:49:24.866Z,6.93
2022-12-09T13:51:53.521Z,7.05
2022-12-09T13:54:23.265Z,7.05
2022-12-09T13:57:18.842Z,6.96
2022-12-09T13:59:53.342Z,6.89
2022-12-09T14:02:30.034Z,6.58
2022-12-09T14:05:35.607Z,6.66
2022-12-09T14:08:15.342Z,6.65
2022-12-09T14:10:46.955Z,6.73
2022-12-09T14:13:29.796Z,6.72
2022-12-09T14:16:13.440Z,6.77
2022-12-09T14:18:43.590Z,6.85
2022-12-09T14:21:19.384Z,6.95
2022-12-09T14:24:07.442Z,6.99
2022-12-09T14:26:41.033Z,6.97
2022-12-09T14:29:08.062Z,6.80
2022-12-09T14:31:56.216Z,6.84
2022-12-09T14:34:35.606Z,6.88
2022-12-09T14:37:31.414Z,6.86
2022-12-09T14:40:22.466Z,6.79
2022-12-09T14:42:48.920Z,6.82
2022-12-09T14:46:06.763Z,6.72
2022-12-09T14:48:38.587Z,6.53
2022-12-09T14:51:17.442Z,6.26
2022-12-09T14:53:48.535Z,6.24
2022-12-09T14:56:17.878Z,6.22
2022-12-09T14:58:52.121Z,6.02
2022-12-09T15:01:18.968Z,6.06
2022-12-09T15:03:54.432Z,5.94
2022-12-09T15:06:21.975Z,5.88
2022-12-09T15:08:48.907Z,5.97
2022-12-09T15:11:21.136Z,5.95
2022-12-09T15:13:50.089Z,6.05
2022-12-09T15:16:19.412Z,6.03
2022-12-09T15:18:46.834Z,5.96
2022-12-09T15:21:28.800Z,6.12
2022-12-09T15:23:55.960Z,5.93
2022-12-09T15:26:26.259Z,5.93
2022-12-09T15:28:54.566Z,5.96
2022-12-09T15:31:23.935Z,5.95
2022-12-09T15:33:59.703Z,5.83
2022-12-09T15:36:45.840Z,5.68
2022-12-09T15:39:19.587Z,5.65
2022-12-09T15:41:48.557Z,5.77
2022-12-09T15:44:21.668Z,5.79
2022-12-09T15:46:50.803Z,5.82
2022-12-09T15:49:43.544Z,5.73
2022-12-09T15:52:15.244Z,5.50
2022-12-09T15:54:43.059Z,5.51
2022-12-09T15:57:11.033Z,5.67
2022-12-09T15:59:52.391Z,5.73
2022-12-09T16:02:28.594Z,5.82
2022-12-09T16:04:58.469Z,5.84
2022-12-09T16:07:24.983Z,6.03
2022-12-09T16:10:08.481Z,6.14
2022-12-09T16:12:35.908Z,6.12
2022-12-09T16:15:03.969Z,6.08
2022-12-09T16:17:33.002Z,6.10
2022-12-09T16:20:20.056Z,6.19
2022-12-09T16:22:49.112Z,5.99
2022-12-09T16:25:25.235Z,6.09
2022-12-09T16:27:59.601Z,5.83
2022-12-09T16:30:32.894Z,6.10
2022-12-09T16:33:03.673Z,6.20
2022-12-09T16:35:43.344Z,6.29
2022-12-09T16:38:14.413Z,6.41
2022-12-09T16:40:46.172Z,6.00
2022-12-09T16:43:20.434Z,6.22
2022-12-09T16:46:06.963Z,6.01
2022-12-09T16:48:33.563Z,6.20
2022-12-09T16:51:05.622Z,6.33
2022-12-09T16:53:35.504Z,6.32
2022-12-09T16:56:03.324Z,6.36
2022-12-09T16:58:32.264Z,6.32
2022-12-09T17:01:00.305Z,6.35
2022-12-09T17:04:10.675Z,6.32
2022-12-09T17:06:37.373Z,6.31
2022-12-09T17:09:03.934Z,6.32
2022-12-09T17:11:30.444Z,6.36
2022-12-09T17:13:57.040Z,5.89
2022-12-09T17:16:23.674Z,5.99
2022-12-09T17:18:50.593Z,6.24
2022-12-09T17:21:17.143Z,6.13
2022-12-09T17:23:44.267Z,6.12
2022-12-09T17:26:13.821Z,6.17
2022-12-09T17:28:45.524Z,6.02
2022-12-09T17:31:17.019Z,6.29
2022-12-09T17:33:43.778Z,6.38
2022-12-09T17:36:11.735Z,6.18
2022-12-09T17:38:39.172Z,6.33
2022-12-09T17:41:11.123Z,6.41
2022-12-09T17:43:37.639Z,6.35
2022-12-09T17:46:05.248Z,6.36
2022-12-09T17:48:33.314Z,6.36
2022-12-09T17:51:05.252Z,6.48
2022-12-09T17:53:41.658Z,6.44
2022-12-09T17:56:10.479Z,6.35
2022-12-09T17:58:37.016Z,6.43
2022-12-09T18:01:03.845Z,6.32
2022-12-09T18:03:54.430Z,6.24
2022-12-09T18:06:17.185Z,6.20
2022-12-09T18:08:43.898Z,6.28
2022-12-09T18:11:13.550Z,6.11
2022-12-09T18:13:40.274Z,6.08
2022-12-09T18:16:13.886Z,5.99
2022-12-09T18:18:41.853Z,5.80
2022-12-09T18:21:15.148Z,5.92
2022-12-09T18:23:42.740Z,5.99
2022-12-09T18:26:14.396Z,5.80
2022-12-09T18:28:41.179Z,6.06
2022-12-09T18:31:19.961Z,5.98
2022-12-09T18:33:46.769Z,6.00
2022-12-09T18:36:21.824Z,5.76
2022-12-09T18:38:48.813Z,6.01
2022-12-09T18:41:24.051Z,5.98
2022-12-09T18:43:52.760Z,5.79
2022-12-09T18:46:26.716Z,5.99
2022-12-09T18:49:01.277Z,6.13
2022-12-09T18:51:28.653Z,6.21
2022-12-09T18:53:57.269Z,6.18
2022-12-09T18:56:26.717Z,6.18
2022-12-09T18:59:09.652Z,6.18
2022-12-09T19:01:40.338Z,6.22
2022-12-09T19:04:11.616Z,6.22
2022-12-09T19:06:39.914Z,6.07
2022-12-09T19:09:17.177Z,6.14
2022-12-09T19:11:45.062Z,6.15
2022-12-09T19:14:16.197Z,6.05
2022-12-09T19:16:43.601Z,5.78
2022-12-09T19:19:12.899Z,5.73
2022-12-09T19:21:39.691Z,5.93
2022-12-09T19:24:07.638Z,6.01
2022-12-09T19:26:34.849Z,6.06
2022-12-09T19:29:05.315Z,6.09
2022-12-09T19:31:34.474Z,6.11
2022-12-09T19:34:03.725Z,6.11
2022-12-09T19:36:30.946Z,6.10
2022-12-09T19:38:58.075Z,6.04
2022-12-09T19:41:24.962Z,6.15
2022-12-09T19:43:55.335Z,6.00
2022-12-09T19:46:21.855Z,5.92
2022-12-09T19:48:48.405Z,5.73
2022-12-09T19:51:16.407Z,5.65
2022-12-09T19:53:43.968Z,5.53
2022-12-09T19:56:12.899Z,5.44
2022-12-09T19:58:41.472Z,5.25
2022-12-09T20:01:10.068Z,5.32
2022-12-09T20:03:38.435Z,5.42
2022-12-09T20:06:06.879Z,5.65
2022-12-09T20:08:33.803Z,5.51
2022-12-09T20:11:00.306Z,5.32
2022-12-09T20:13:31.653Z,5.52
2022-12-09T20:16:03.742Z,5.77
2022-12-09T20:18:30.297Z,5.95
2022-12-09T20:21:01.002Z,5.68
2022-12-09T20:23:28.099Z,5.80
2022-12-09T20:25:54.667Z,6.05
2022-12-09T20:28:21.165Z,6.06
2022-12-09T20:30:47.694Z,6.01
2022-12-09T20:33:14.584Z,6.11
2022-12-09T20:35:41.077Z,6.12
2022-12-09T20:38:07.928Z,6.22
2022-12-09T20:40:40.506Z,5.99
2022-12-09T20:43:08.750Z,6.02
2022-12-09T20:45:39.653Z,5.94
2022-12-09T20:48:06.572Z,5.76
2022-12-09T20:50:38.427Z,5.83
2022-12-09T20:53:06.512Z,5.95
2022-12-09T20:55:33.582Z,6.00
2022-12-09T20:58:00.071Z,6.03
2022-12-09T21:00:31.248Z,6.11
2022-12-09T21:02:57.780Z,6.05
2022-12-09T21:05:24.607Z,6.02
2022-12-09T21:07:51.299Z,5.93
2022-12-09T21:10:18.977Z,5.95
2022-12-09T21:12:45.553Z,5.99
2022-12-09T21:15:12.144Z,6.11
2022-12-09T21:17:38.889Z,5.88
2022-12-09T21:20:06.310Z,5.48
2022-12-09T21:22:33.132Z,5.37
2022-12-09T21:24:59.938Z,5.54
2022-12-09T21:27:26.602Z,5.44
2022-12-09T21:29:53.134Z,5.53
2022-12-09T21:32:19.671Z,5.76
2022-12-09T21:34:46.609Z,5.90
2022-12-09T21:37:13.122Z,5.71
2022-12-09T21:39:39.862Z,5.88
2022-12-09T21:42:06.430Z,5.96
2022-12-09T21:44:32.905Z,6.10
2022-12-09T21:46:59.631Z,5.97
2022-12-09T21:49:26.385Z,6.05
2022-12-09T21:51:52.882Z,6.20
2022-12-09T21:54:19.469Z,6.24
2022-12-09T21:56:46.160Z,6.25
2022-12-09T21:59:12.811Z,6.37
2022-12-09T22:01:41.272Z,6.11
2022-12-09T22:04:10.385Z,6.13
2022-12-09T22:06:40.360Z,6.27
2022-12-09T22:09:07.888Z,6.31
2022-12-09T22:11:36.552Z,6.31
2022-12-09T22:14:03.621Z,6.22
2022-12-09T22:16:33.610Z,6.06
2022-12-09T22:19:01.573Z,6.13
2022-12-09T22:21:30.166Z,6.16
2022-12-09T22:23:59.588Z,5.93
2022-12-09T22:26:26.870Z,5.91
2022-12-09T22:28:53.789Z,5.95
2022-12-09T22:31:34.460Z,5.83
2022-12-09T22:34:07.705Z,5.83
2022-12-09T22:36:34.427Z,5.90
2022-12-09T22:39:01.076Z,5.89
2022-12-09T22:41:28.703Z,5.99
2022-12-09T22:43:56.294Z,6.15
2022-12-09T22:46:25.817Z,6.30
2022-12-09T22:48:52.353Z,6.29
2022-12-09T22:51:22.425Z,6.42
2022-12-09T22:53:53.002Z,6.51
2022-12-09T22:56:20.014Z,6.39
2022-12-09T22:58:47.415Z,6.31
2022-12-09T23:01:16.330Z,6.52
2022-12-09T23:03:43.430Z,6.32
2022-12-09T23:06:14.176Z,6.32
2022-12-09T23:08:42.882Z,6.42
2022-12-09T23:11:19.083Z,6.58
2022-12-09T23:13:46.042Z,6.58
2022-12-09T23:16:15.681Z,6.43
2022-12-09T23:18:42.640Z,6.52
2022-12-09T23:21:12.743Z,6.46
2022-12-09T23:23:43.038Z,6.24
2022-12-09T23:26:14.063Z,6.30
2022-12-09T23:28:45.977Z,6.30
2022-12-09T23:31:14.543Z,6.12
2022-12-09T23:33:42.686Z,6.04
2022-12-09T23:36:14.947Z,6.05
2022-12-09T23:38:42.100Z,6.03
2022-12-09T23:41:10.441Z,5.92
2022-12-09T23:43:38.385Z,5.95
2022-12-09T23:46:15.180Z,6.02
2022-12-09T23:48:46.219Z,6.02
2022-12-09T23:51:16.102Z,5.90
2022-12-09T23:53:44.156Z,5.98
2022-12-09T23:56:13.002Z,6.05
2022-12-09T23:58:39.992Z,6.00
